Time;durP1;ratioP1;P1;durP2;ratioP2;P2;SDS_P1;SDS_P2;PMS_P1;PMS_P2;Temp;Humidity;BMP_temperature;BMP_pressure;BME280_temperature;BME280_humidity;BME280_pressure;Samples;Min_cycle;Max_cycle;Signal;HPM_P1;HPM_P2
2023/09/12 00:00:19;;;;;;;19.10;8.88;;;;;;;20.22;98.32;101049.00;4917452;29;20039;-65
2023/09/12 00:02:44;;;;;;;21.33;10.00;;;;;;;20.30;98.41;100992.63;4911220;29;20047;-65
2023/09/12 00:05:10;;;;;;;19.45;9.27;;;;;;;20.11;100.00;100970.72;4931685;28;20480;-66
2023/09/12 00:07:38;;;;;;;24.30;9.05;;;;;;;20.05;100.00;100960.25;4941304;28;20051;-66
2023/09/12 00:10:03;;;;;;;20.38;11.02;;;;;;;19.97;100.00;100938.44;4917332;29;20043;-66
2023/09/12 00:12:29;;;;;;;19.98;9.73;;;;;;;19.89;100.00;100935.28;4929527;28;20044;-66
2023/09/12 00:14:54;;;;;;;20.73;11.75;;;;;;;19.88;100.00;100952.09;4948121;28;20027;-66
2023/09/12 00:17:20;;;;;;;21.52;11.90;;;;;;;19.86;100.00;100980.44;4914653;29;20106;-66
2023/09/12 00:19:45;;;;;;;26.88;14.90;;;;;;;19.92;100.00;101011.16;4929589;29;20062;-66
2023/09/12 00:22:11;;;;;;;21.88;13.57;;;;;;;19.90;100.00;101000.84;4926371;29;20044;-66
2023/09/12 00:24:37;;;;;;;20.20;11.82;;;;;;;19.80;100.00;100988.16;4926896;29;20040;-66
2023/09/12 00:27:04;;;;;;;19.48;12.30;;;;;;;19.77;100.00;100972.00;4911116;29;20048;-66
2023/09/12 00:29:30;;;;;;;19.17;12.00;;;;;;;19.78;100.00;100963.91;4925978;29;20043;-66
2023/09/12 00:31:55;;;;;;;20.35;11.60;;;;;;;19.80;100.00;100982.09;4914544;29;20047;-66
2023/09/12 00:34:21;;;;;;;16.88;11.40;;;;;;;19.79;100.00;100991.00;4928264;29;20040;-66
2023/09/12 00:36:46;;;;;;;20.15;11.15;;;;;;;19.83;100.00;100981.66;4925072;29;20039;-66
2023/09/12 00:39:12;;;;;;;18.77;11.55;;;;;;;19.86;100.00;100980.44;4928028;29;20044;-66
2023/09/12 00:41:37;;;;;;;14.30;9.90;;;;;;;19.86;100.00;100978.59;4927458;29;20051;-66
2023/09/12 00:44:03;;;;;;;18.92;10.00;;;;;;;19.88;100.00;100965.25;4925261;29;20039;-66
2023/09/12 00:46:29;;;;;;;22.58;12.25;;;;;;;19.89;100.00;100956.31;4913225;29;20558;-66
2023/09/12 00:48:59;;;;;;;17.25;11.07;;;;;;;19.89;100.00;100966.84;4929677;29;20046;-66
2023/09/12 00:51:25;;;;;;;21.95;11.23;;;;;;;19.86;100.00;100975.97;4914059;29;20039;-66
2023/09/12 00:53:51;;;;;;;21.95;10.60;;;;;;;19.84;100.00;100981.44;4911506;29;20037;-66
2023/09/12 00:56:17;;;;;;;22.67;10.88;;;;;;;19.85;100.00;100979.63;4925629;28;20038;-66
2023/09/12 00:58:43;;;;;;;17.77;10.43;;;;;;;19.88;100.00;100976.56;4926270;29;20088;-66
2023/09/12 01:01:08;;;;;;;16.92;10.38;;;;;;;19.90;100.00;100971.91;4910306;29;20044;-66
2023/09/12 01:03:35;;;;;;;16.77;10.38;;;;;;;19.90;100.00;100981.63;4929081;29;20039;-66
2023/09/12 01:06:02;;;;;;;19.73;10.75;;;;;;;19.87;100.00;100971.50;4925346;28;20043;-66
2023/09/12 01:08:28;;;;;;;17.45;10.85;;;;;;;19.82;100.00;100982.69;4929611;29;20050;-66
2023/09/12 01:10:56;;;;;;;20.73;10.95;;;;;;;19.76;100.00;100992.25;4924986;29;20513;-65
2023/09/12 01:13:23;;;;;;;20.65;11.90;;;;;;;19.69;100.00;100999.31;4929143;29;20039;-66
2023/09/12 01:15:48;;;;;;;17.63;12.00;;;;;;;19.60;100.00;100982.19;4923697;28;20051;-67
2023/09/12 01:18:14;;;;;;;22.17;12.10;;;;;;;19.57;100.00;100978.16;4912986;29;20032;-66
2023/09/12 01:20:48;;;;;;;18.63;12.90;;;;;;;19.57;100.00;100980.78;4928125;28;20037;-66
2023/09/12 01:23:54;;;;;;;21.48;12.10;;;;;;;19.59;100.00;100967.41;4918444;29;20053;-66
2023/09/12 01:26:42;;;;;;;17.85;11.52;;;;;;;19.62;100.00;100969.63;4912058;28;20040;-66
2023/09/12 01:29:09;;;;;;;20.25;12.80;;;;;;;19.62;100.00;100969.63;4944649;28;20039;-66
2023/09/12 01:31:37;;;;;;;17.15;11.68;;;;;;;19.65;100.00;100969.22;4916255;29;20122;-66
2023/09/12 01:34:12;;;;;;;20.10;11.48;;;;;;;19.69;100.00;100956.44;4913809;29;20697;-66
2023/09/12 01:36:38;;;;;;;19.45;12.05;;;;;;;19.73;100.00;100965.53;4916893;29;20047;-66
2023/09/12 01:39:04;;;;;;;22.00;11.38;;;;;;;19.73;100.00;100963.72;4929059;29;20050;-66
2023/09/12 01:41:31;;;;;;;20.33;11.45;;;;;;;19.70;100.00;100963.31;4945255;28;20048;-66
2023/09/12 01:43:59;;;;;;;20.08;12.98;;;;;;;19.64;100.00;100951.81;4930130;28;20032;-66
2023/09/12 01:46:26;;;;;;;21.63;11.70;;;;;;;19.63;100.00;100948.38;4913965;29;20124;-66
2023/09/12 01:48:55;;;;;;;18.20;11.68;;;;;;;19.62;100.00;100959.09;4931972;28;20055;-66
2023/09/12 01:51:24;;;;;;;18.63;12.40;;;;;;;19.63;100.00;100963.34;4910514;29;20054;-66
2023/09/12 01:53:50;;;;;;;21.35;11.75;;;;;;;19.58;100.00;100969.25;4929602;29;20042;-66
2023/09/12 01:56:17;;;;;;;19.73;12.13;;;;;;;19.54;100.00;100962.78;4945668;28;20039;-66
2023/09/12 01:58:43;;;;;;;20.52;11.90;;;;;;;19.54;100.00;100975.94;4932637;29;20827;-66
2023/09/12 02:01:09;;;;;;;19.63;12.05;;;;;;;19.57;100.00;100972.06;4928648;28;20047;-66
2023/09/12 02:03:34;;;;;;;21.80;12.55;;;;;;;19.58;100.00;100957.91;4926036;29;20161;-66
2023/09/12 02:06:00;;;;;;;21.48;13.48;;;;;;;19.56;100.00;100966.00;4931235;29;20050;-67
2023/09/12 02:08:25;;;;;;;24.55;14.40;;;;;;;19.50;100.00;100960.81;4923865;29;20039;-66
2023/09/12 02:10:51;;;;;;;27.25;16.38;;;;;;;19.48;100.00;100992.56;4932468;29;20040;-66
2023/09/12 02:13:16;;;;;;;23.98;14.45;;;;;;;19.42;100.00;101012.63;4913605;29;20039;-66
2023/09/12 02:15:42;;;;;;;26.23;15.88;;;;;;;19.38;100.00;101008.81;4928223;29;20044;-66
2023/09/12 02:18:07;;;;;;;23.55;13.43;;;;;;;19.32;100.00;100972.81;4928182;28;20051;-66
2023/09/12 02:20:33;;;;;;;33.22;20.40;;;;;;;19.32;100.00;100954.41;4927271;29;20758;-66
2023/09/12 02:22:58;;;;;;;29.77;16.65;;;;;;;19.27;100.00;100943.75;4915023;29;20399;-66
2023/09/12 02:25:24;;;;;;;35.95;16.70;;;;;;;19.23;100.00;100945.16;4916832;29;20407;-68
2023/09/12 02:27:49;;;;;;;32.20;15.50;;;;;;;19.28;100.00;100937.44;4914260;28;20044;-68
2023/09/12 02:30:15;;;;;;;26.90;15.13;;;;;;;19.33;100.00;100927.13;4941713;28;20051;-68
2023/09/12 02:32:42;;;;;;;36.22;20.75;;;;;;;19.35;100.00;100937.44;4928707;28;20403;-68
2023/09/12 02:35:08;;;;;;;37.33;18.15;;;;;;;19.32;100.00;100956.25;4928007;28;20130;-68
2023/09/12 02:37:33;;;;;;;31.35;16.45;;;;;;;19.32;100.00;100954.41;4923852;28;20099;-67
2023/09/12 02:39:59;;;;;;;40.67;21.40;;;;;;;19.34;100.00;100951.56;4914066;29;20756;-66
2023/09/12 02:42:25;;;;;;;27.23;17.17;;;;;;;19.34;100.00;100949.75;4912900;29;20419;-67
2023/09/12 02:44:52;;;;;;;29.55;17.52;;;;;;;19.32;100.00;100948.34;4932414;29;20024;-67
2023/09/12 02:47:17;;;;;;;28.77;16.40;;;;;;;19.26;100.00;100944.75;4927194;28;20040;-67
2023/09/12 02:49:43;;;;;;;24.63;14.15;;;;;;;19.28;100.00;100939.28;4929745;29;20648;-67
2023/09/12 02:52:08;;;;;;;32.47;18.90;;;;;;;19.32;100.00;100928.13;4908656;29;20114;-67
2023/09/12 02:54:34;;;;;;;28.70;18.15;;;;;;;19.24;100.00;100929.19;4928004;29;20111;-67
2023/09/12 02:56:59;;;;;;;27.10;15.18;;;;;;;19.22;100.00;100946.19;4926284;28;20035;-67
2023/09/12 02:59:25;;;;;;;30.63;17.52;;;;;;;19.17;100.00;100946.78;4925061;29;20036;-66
2023/09/12 03:01:50;;;;;;;21.50;14.02;;;;;;;19.12;100.00;100946.63;4928592;28;20039;-67
2023/09/12 03:04:16;;;;;;;25.08;13.55;;;;;;;19.12;100.00;100948.44;4925685;29;20431;-67
2023/09/12 03:06:41;;;;;;;22.33;13.48;;;;;;;19.14;100.00;100944.59;4943291;28;20040;-67
2023/09/12 03:09:07;;;;;;;18.42;11.00;;;;;;;19.18;100.00;100950.25;4911529;29;20460;-67
2023/09/12 03:11:33;;;;;;;24.70;14.48;;;;;;;19.20;100.00;100956.91;4922710;28;20044;-67
2023/09/12 03:13:58;;;;;;;25.75;13.90;;;;;;;19.18;100.00;100953.69;4942254;28;20028;-67
2023/09/12 03:16:24;;;;;;;23.30;13.05;;;;;;;19.18;100.00;100947.63;4926316;28;20055;-67
2023/09/12 03:18:50;;;;;;;23.65;13.18;;;;;;;19.19;100.00;100942.16;4948792;28;20052;-67
2023/09/12 03:21:15;;;;;;;22.98;13.20;;;;;;;19.19;100.00;100926.41;4933064;28;20039;-67
2023/09/12 03:23:40;;;;;;;28.80;16.80;;;;;;;19.25;100.00;100920.28;4918690;29;20047;-67
2023/09/12 03:26:06;;;;;;;21.67;14.27;;;;;;;19.22;100.00;100918.06;4910930;29;20047;-67
2023/09/12 03:28:33;;;;;;;22.05;12.30;;;;;;;19.21;100.00;100918.28;4913155;29;20038;-67
2023/09/12 03:31:13;;;;;;;20.27;13.13;;;;;;;19.20;100.00;100899.06;4927309;29;20040;-67
2023/09/12 03:33:40;;;;;;;20.75;12.00;;;;;;;19.22;100.00;100885.72;4944745;28;20396;-67
2023/09/12 03:36:07;;;;;;;21.20;12.82;;;;;;;19.23;100.00;100897.84;4936771;28;20266;-67
2023/09/12 03:38:33;;;;;;;21.67;13.45;;;;;;;19.23;100.00;100896.03;4910496;29;20028;-67
2023/09/12 03:40:59;;;;;;;22.50;13.80;;;;;;;19.19;100.00;100891.41;4924007;29;20403;-67
2023/09/12 03:43:25;;;;;;;19.15;12.00;;;;;;;19.13;100.00;100897.50;4915329;29;20394;-67
2023/09/12 03:45:50;;;;;;;24.13;14.25;;;;;;;19.12;100.00;100890.63;4927900;29;20036;-68
2023/09/12 03:48:16;;;;;;;18.48;12.60;;;;;;;19.08;100.00;100882.38;4908816;29;20063;-67
2023/09/12 03:50:42;;;;;;;19.52;12.75;;;;;;;19.03;100.00;100879.56;4935720;29;20040;-67
2023/09/12 03:53:08;;;;;;;22.65;13.07;;;;;;;19.02;100.00;100891.06;4928011;28;20063;-67
2023/09/12 03:55:33;;;;;;;21.13;12.63;;;;;;;19.00;100.00;100906.25;4922314;29;20036;-67
2023/09/12 03:57:59;;;;;;;23.92;15.15;;;;;;;18.96;100.00;100902.44;4915805;29;20044;-67
2023/09/12 04:00:24;;;;;;;25.00;12.23;;;;;;;18.93;100.00;100898.41;4925890;29;20051;-67
2023/09/12 04:02:50;;;;;;;18.95;12.80;;;;;;;18.96;100.00;100897.97;4913204;29;20466;-67
2023/09/12 04:05:16;;;;;;;20.75;12.95;;;;;;;18.97;100.00;100893.56;4925532;29;20035;-67
2023/09/12 04:07:41;;;;;;;18.83;12.75;;;;;;;18.96;100.00;100895.34;4914091;29;20036;-67
2023/09/12 04:10:08;;;;;;;17.90;11.73;;;;;;;18.96;100.00;100889.28;4921089;29;20035;-67
2023/09/12 04:12:33;;;;;;;24.73;13.23;;;;;;;18.95;100.00;100887.66;4915109;29;20035;-67
2023/09/12 04:14:58;;;;;;;22.65;13.43;;;;;;;18.93;100.00;100897.59;4910913;29;20039;-67
2023/09/12 04:17:24;;;;;;;19.00;11.77;;;;;;;18.89;100.00;100905.06;4910135;29;20044;-67
2023/09/12 04:19:49;;;;;;;21.10;12.65;;;;;;;18.86;100.00;100916.00;4931701;29;20070;-67
2023/09/12 04:22:15;;;;;;;27.70;13.65;;;;;;;18.86;100.00;100916.00;4923184;29;20047;-67
2023/09/12 04:24:41;;;;;;;22.45;13.63;;;;;;;18.85;100.00;100906.50;4948026;28;20020;-67
2023/09/12 04:27:07;;;;;;;21.05;12.90;;;;;;;18.90;100.00;100911.94;4917318;29;20067;-67
2023/09/12 04:29:34;;;;;;;25.80;16.95;;;;;;;18.92;100.00;100906.50;4930934;29;20539;-67
2023/09/12 04:32:03;;;;;;;23.77;13.43;;;;;;;18.93;100.00;100897.59;4926307;28;20645;-67
2023/09/12 04:34:29;;;;;;;22.42;14.27;;;;;;;18.94;100.00;100907.88;4912789;29;20088;-67
2023/09/12 04:36:54;;;;;;;25.45;13.65;;;;;;;18.97;100.00;100904.06;4922966;28;20647;-67
2023/09/12 04:39:20;;;;;;;24.63;14.70;;;;;;;18.99;100.00;100900.19;4934815;29;21382;-67
2023/09/12 04:41:46;;;;;;;21.85;14.48;;;;;;;19.01;100.00;100886.84;4916460;29;20044;-67
2023/09/12 04:44:12;;;;;;;23.25;14.55;;;;;;;19.03;100.00;100892.72;4932536;29;20116;-67
2023/09/12 04:46:37;;;;;;;24.35;15.32;;;;;;;19.02;100.00;100883.19;4934222;28;20031;-67
2023/09/12 04:49:03;;;;;;;26.63;16.23;;;;;;;19.01;100.00;100892.91;4910342;29;20066;-67
2023/09/12 04:51:29;;;;;;;32.38;16.23;;;;;;;19.00;100.00;100896.53;4924657;29;20052;-67
2023/09/12 04:53:54;;;;;;;27.77;17.33;;;;;;;19.00;100.00;100893.13;4928759;29;20059;-67
2023/09/12 04:56:20;;;;;;;35.08;19.08;;;;;;;19.00;100.00;100904.41;4913222;29;20400;-67
2023/09/12 04:58:46;;;;;;;39.72;20.88;;;;;;;18.99;100.00;100915.97;4931896;28;20060;-67
2023/09/12 05:01:11;;;;;;;38.20;22.58;;;;;;;18.96;100.00;100928.69;4933808;28;20089;-67
2023/09/12 05:03:37;;;;;;;37.97;22.70;;;;;;;18.93;100.00;100934.38;4928898;29;20032;-67
2023/09/12 05:06:03;;;;;;;38.08;23.60;;;;;;;18.85;100.00;100935.41;4923310;29;20032;-67
2023/09/12 05:08:29;;;;;;;42.45;25.48;;;;;;;18.86;100.00;100934.41;4926522;29;20027;-67
2023/09/12 05:10:55;;;;;;;41.72;24.08;;;;;;;18.84;100.00;100931.97;4942011;28;20039;-67
2023/09/12 05:13:20;;;;;;;40.60;24.25;;;;;;;18.81;100.00;100934.22;4923999;28;20036;-67
2023/09/12 05:15:47;;;;;;;36.05;19.92;;;;;;;18.82;100.00;100938.47;4931817;28;20043;-67
2023/09/12 05:18:12;;;;;;;31.60;18.55;;;;;;;18.84;100.00;100953.00;4913686;29;20068;-67
2023/09/12 05:20:38;;;;;;;32.00;20.27;;;;;;;18.86;100.00;100953.59;4909235;29;20059;-67
2023/09/12 05:23:04;;;;;;;37.40;21.15;;;;;;;18.89;100.00;100959.44;4912834;29;20036;-66
2023/09/12 05:25:30;;;;;;;42.40;21.77;;;;;;;18.90;100.00;100961.88;4922856;28;20044;-70
2023/09/12 05:27:55;;;;;;;44.53;23.98;;;;;;;18.92;100.00;100982.69;4939730;28;20041;-70
2023/09/12 05:30:22;;;;;;;42.45;24.80;;;;;;;18.96;100.00;100995.19;4928225;29;20111;-68
2023/09/12 05:32:48;;;;;;;44.75;25.17;;;;;;;18.96;100.00;101025.91;4924584;28;20420;-67
2023/09/12 05:35:14;;;;;;;46.72;26.23;;;;;;;18.99;100.00;101043.91;4916386;29;20098;-67
2023/09/12 05:37:39;;;;;;;44.55;25.30;;;;;;;18.97;100.00;101061.69;4925646;29;20036;-67
2023/09/12 05:40:06;;;;;;;53.38;29.15;;;;;;;18.90;100.00;101081.91;4909715;29;20036;-67
2023/09/12 05:42:31;;;;;;;51.85;29.55;;;;;;;18.85;100.00;101079.88;4945586;28;20051;-67
2023/09/12 05:44:57;;;;;;;52.45;26.70;;;;;;;18.81;100.00;101050.59;4912832;29;20092;-69
2023/09/12 05:51:09;;;;;;;46.95;22.38;;;;;;;18.77;100.00;101043.31;4914724;29;20129;-70
2023/09/12 05:57:28;;;;;;;48.55;25.58;;;;;;;18.65;100.00;100983.53;4917655;28;20522;-70
2023/09/12 05:59:54;;;;;;;50.80;28.07;;;;;;;18.60;100.00;100953.63;4936985;28;20124;-69
2023/09/12 06:02:19;;;;;;;55.75;27.13;;;;;;;18.56;100.00;100945.34;4923633;28;20118;-69
2023/09/12 06:04:45;;;;;;;52.05;27.55;;;;;;;18.57;100.00;100939.09;4914608;29;20043;-68
2023/09/12 06:07:11;;;;;;;57.53;28.05;;;;;;;18.58;100.00;100937.28;4929488;28;20055;-69
2023/09/12 06:09:36;;;;;;;47.75;25.08;;;;;;;18.56;100.00;100931.44;4936125;29;20035;-69
2023/09/12 06:12:02;;;;;;;47.58;26.35;;;;;;;18.57;100.00;100933.03;4920190;28;20050;-69
2023/09/12 06:14:28;;;;;;;54.45;29.33;;;;;;;18.61;100.00;100944.72;4916268;29;20495;-68
2023/09/12 06:16:53;;;;;;;48.00;25.63;;;;;;;18.59;100.00;100941.50;4914105;29;20036;-69
2023/09/12 06:19:19;;;;;;;49.58;27.88;;;;;;;18.61;100.00;100956.06;4914959;29;20169;-69
2023/09/12 06:21:45;;;;;;;54.13;28.27;;;;;;;18.61;100.00;100963.09;4935607;28;20052;-68
2023/09/12 06:24:16;;;;;;;47.95;25.98;;;;;;;18.68;100.00;100987.53;4919494;29;20036;-69
2023/09/12 06:26:42;;;;;;;50.00;26.70;;;;;;;18.71;100.00;100991.59;4916062;29;20040;-68
2023/09/12 06:29:08;;;;;;;46.60;25.98;;;;;;;18.72;100.00;101001.06;4913752;29;20042;-68
2023/09/12 06:31:34;;;;;;;39.15;22.45;;;;;;;18.71;100.00;101010.78;4919914;29;20443;-68
2023/09/12 06:34:00;;;;;;;41.42;21.77;;;;;;;18.73;100.00;101005.34;4928399;29;20075;-68
2023/09/12 06:36:29;;;;;;;44.95;26.17;;;;;;;18.75;100.00;100998.06;4930033;28;20043;-68
2023/09/12 06:38:58;;;;;;;37.70;20.48;;;;;;;18.77;100.00;101004.69;4927217;29;20040;-68
2023/09/12 06:41:24;;;;;;;31.85;19.50;;;;;;;18.80;100.00;101004.34;4930051;28;20059;-68
2023/09/12 06:43:49;;;;;;;45.78;24.38;;;;;;;18.80;100.00;100996.44;4930977;29;20047;-68
2023/09/12 06:46:17;;;;;;;49.53;28.13;;;;;;;18.82;100.00;100996.25;4931701;28;20044;-68
2023/09/12 06:48:44;;;;;;;42.50;25.63;;;;;;;18.81;100.00;100998.06;4932841;29;20062;-68
2023/09/12 06:51:10;;;;;;;34.33;21.35;;;;;;;18.83;100.00;100992.59;4926026;29;20048;-67
2023/09/12 06:53:38;;;;;;;55.92;30.48;;;;;;;18.82;100.00;100999.69;4917758;29;20040;-68
2023/09/12 06:56:05;;;;;;;47.45;27.75;;;;;;;18.83;100.00;100998.66;4927241;29;20527;-68
2023/09/12 06:58:31;;;;;;;49.65;25.45;;;;;;;18.86;100.00;100998.25;4913884;29;21076;-68
2023/09/12 07:01:02;;;;;;;43.33;24.27;;;;;;;18.89;100.00;100988.34;4914327;29;20048;-68
2023/09/12 07:03:28;;;;;;;52.85;25.77;;;;;;;18.94;100.00;100985.91;4912348;29;20035;-68
2023/09/12 07:05:53;;;;;;;46.05;26.60;;;;;;;18.97;100.00;100980.25;4914888;29;20119;-67
2023/09/12 07:08:19;;;;;;;49.63;26.17;;;;;;;19.04;100.00;100967.88;4926877;28;20040;-68
2023/09/12 07:10:45;;;;;;;51.15;27.27;;;;;;;19.11;100.00;100963.41;4927257;28;20039;-70
2023/09/12 07:13:11;;;;;;;56.42;30.63;;;;;;;19.17;100.00;100959.13;4930718;28;20036;-67
2023/09/12 07:15:37;;;;;;;44.72;27.20;;;;;;;19.17;100.00;100948.63;4933139;29;20507;-68
2023/09/12 07:18:04;;;;;;;51.20;27.25;;;;;;;19.19;100.00;100950.03;4914200;29;20553;-68
2023/09/12 07:20:29;;;;;;;44.58;26.45;;;;;;;19.17;100.00;100943.38;4917105;29;20423;-68
2023/09/12 07:22:55;;;;;;;43.08;25.08;;;;;;;19.19;100.00;100946.59;4911501;29;20040;-68
2023/09/12 07:25:23;;;;;;;58.45;29.77;;;;;;;19.17;100.00;100940.75;4915947;29;20179;-68
2023/09/12 07:27:50;;;;;;;43.50;25.10;;;;;;;19.19;100.00;100943.97;4922675;28;20066;-68
2023/09/12 07:30:16;;;;;;;43.88;25.90;;;;;;;19.28;100.00;100947.97;4936413;29;20041;-68
2023/09/12 07:32:41;;;;;;;41.83;23.48;;;;;;;19.42;100.00;100957.41;4915833;29;20040;-68
2023/09/12 07:35:10;;;;;;;45.17;25.13;;;;;;;19.65;100.00;100970.00;4918808;29;20057;-68
2023/09/12 07:37:35;;;;;;;34.92;21.38;;;;;;;19.95;100.00;100977.34;4936864;28;20043;-68
2023/09/12 07:40:03;;;;;;;36.72;22.83;;;;;;;20.20;100.00;100953.63;4914438;29;20046;-68
2023/09/12 07:42:32;;;;;;;34.90;20.38;;;;;;;20.36;100.00;100956.72;4916019;29;20068;-68
2023/09/12 07:44:58;;;;;;;32.85;21.50;;;;;;;20.46;100.00;100953.63;4920232;29;20509;-68
2023/09/12 07:47:23;;;;;;;33.85;21.20;;;;;;;20.59;100.00;100945.59;4916724;29;20039;-68
2023/09/12 07:49:55;;;;;;;36.70;23.35;;;;;;;21.06;100.00;100945.91;4920009;29;20031;-68
2023/09/12 07:52:21;;;;;;;29.67;17.33;;;;;;;21.81;100.00;100955.22;4915809;29;20087;-68
2023/09/12 07:54:50;;;;;;;28.73;16.77;;;;;;;22.42;100.00;100944.50;4913632;29;20106;-68
2023/09/12 07:57:15;;;;;;;24.55;16.13;;;;;;;23.13;99.51;100956.53;4916119;29;20027;-68
2023/09/12 07:59:41;;;;;;;22.55;14.23;;;;;;;23.63;94.98;100957.69;4923816;29;20079;-68
2023/09/12 08:02:07;;;;;;;25.25;17.25;;;;;;;23.65;91.00;100960.88;4931610;28;20399;-68
2023/09/12 08:04:33;;;;;;;31.58;16.90;;;;;;;23.55;93.61;100962.56;4920086;29;20126;-68
2023/09/12 08:07:00;;;;;;;27.38;16.95;;;;;;;23.79;93.31;100963.25;4931284;28;20040;-68
2023/09/12 08:09:53;;;;;;;36.33;17.60;;;;;;;23.58;92.57;100962.09;4914292;29;20028;-67
2023/09/12 08:12:20;;;;;;;27.50;15.77;;;;;;;23.71;92.36;100959.94;4915090;29;20047;-67
2023/09/12 08:14:45;;;;;;;25.83;15.02;;;;;;;24.06;91.05;100956.28;4912824;29;20148;-67
2023/09/12 08:17:12;;;;;;;24.90;14.57;;;;;;;23.95;89.62;100975.69;4920188;29;20126;-67
2023/09/12 08:19:38;;;;;;;27.23;15.10;;;;;;;24.20;89.04;100982.44;4914520;29;20039;-67
2023/09/12 08:22:04;;;;;;;25.00;16.13;;;;;;;23.94;90.29;100991.81;4932848;28;20458;-67
2023/09/12 08:24:30;;;;;;;23.45;14.82;;;;;;;23.13;92.51;100993.56;4911912;29;20503;-67
2023/09/12 08:26:56;;;;;;;23.92;13.52;;;;;;;22.73;95.58;100994.31;4950048;28;20055;-67
2023/09/12 08:29:21;;;;;;;19.40;12.88;;;;;;;22.71;98.43;100993.72;4913952;29;20035;-67
2023/09/12 08:31:47;;;;;;;13.48;10.05;;;;;;;23.08;98.36;100998.75;4911623;29;20040;-67
2023/09/12 08:34:13;;;;;;;15.27;10.73;;;;;;;23.15;98.02;101000.44;4916408;29;20078;-66
2023/09/12 08:36:39;;;;;;;18.33;10.40;;;;;;;23.34;93.58;101012.47;4914262;28;20036;-67
2023/09/12 08:39:08;;;;;;;12.07;8.65;;;;;;;23.08;95.47;101017.25;4918260;29;20032;-66
2023/09/12 08:41:34;;;;;;;13.27;9.70;;;;;;;22.98;95.07;101024.97;4912094;29;20078;-66
2023/09/12 08:44:01;;;;;;;13.75;8.27;;;;;;;23.91;90.68;101014.28;4912302;29;20024;-67
2023/09/12 08:46:27;;;;;;;13.25;9.00;;;;;;;24.51;88.19;101017.31;4913609;29;20516;-67
2023/09/12 08:48:56;;;;;;;14.05;8.32;;;;;;;23.96;87.44;101024.16;4923158;29;20047;-66
2023/09/12 08:51:24;;;;;;;12.30;6.63;;;;;;;23.65;89.20;101020.97;4914973;29;20054;-67
2023/09/12 08:53:50;;;;;;;11.23;7.90;;;;;;;24.15;86.69;101024.72;4917292;29;20029;-67
2023/09/12 08:56:18;;;;;;;11.55;6.75;;;;;;;24.87;83.66;101021.28;4914745;29;20040;-67
2023/09/12 08:58:45;;;;;;;14.60;6.47;;;;;;;25.16;80.78;101029.84;4912587;29;20044;-67
2023/09/12 09:01:13;;;;;;;8.70;5.45;;;;;;;25.53;79.96;101041.69;4912670;29;20062;-66
2023/09/12 09:03:40;;;;;;;9.63;7.10;;;;;;;25.44;79.78;101043.97;4911622;29;20175;-67
2023/09/12 09:06:07;;;;;;;8.75;5.68;;;;;;;25.43;78.67;101050.34;4908909;29;20115;-66
2023/09/12 09:08:34;;;;;;;6.95;5.40;;;;;;;25.27;79.93;101041.41;4944231;28;20122;-67
2023/09/12 09:11:05;;;;;;;9.30;5.65;;;;;;;25.01;80.88;101033.09;4912453;28;20071;-66
2023/09/12 09:13:31;;;;;;;9.50;5.30;;;;;;;24.81;80.09;101038.97;4915592;29;20110;-66
2023/09/12 09:16:18;;;;;;;15.63;7.78;;;;;;;24.56;82.47;101035.97;4929591;28;20051;-66
2023/09/12 09:18:58;;;;;;;11.20;6.10;;;;;;;24.95;85.13;101033.31;4914052;29;20036;-66
2023/09/12 09:21:30;;;;;;;8.45;5.32;;;;;;;25.00;83.64;101030.72;4943295;28;20040;-66
2023/09/12 09:24:00;;;;;;;10.13;5.75;;;;;;;24.58;82.28;101028.56;4910922;29;20045;-66
2023/09/12 09:26:45;;;;;;;9.10;6.53;;;;;;;25.10;80.10;101027.38;4915387;29;20067;-66
2023/09/12 09:29:17;;;;;;;11.50;6.57;;;;;;;25.27;75.96;101028.13;4917015;29;20042;-66
2023/09/12 09:31:44;;;;;;;10.90;5.78;;;;;;;25.45;76.57;101029.66;4924074;28;20055;-66
2023/09/12 09:34:17;;;;;;;6.68;5.20;;;;;;;25.37;77.69;101019.47;4925628;29;20043;-66
2023/09/12 09:36:53;;;;;;;5.85;4.47;;;;;;;25.59;77.42;101033.50;4914376;29;20036;-66
2023/09/12 09:39:22;;;;;;;9.43;4.70;;;;;;;25.56;75.36;101028.72;4924091;29;20040;-66
2023/09/12 09:41:49;;;;;;;9.43;5.03;;;;;;;25.66;75.22;101033.31;4915999;29;20067;-66
2023/09/12 09:44:15;;;;;;;8.05;4.72;;;;;;;25.43;77.61;101026.47;4920722;28;20035;-66
2023/09/12 09:46:43;;;;;;;8.25;5.43;;;;;;;25.21;79.57;101029.91;4929143;28;20040;-66
2023/09/12 09:49:18;;;;;;;6.72;5.05;;;;;;;25.36;79.49;101023.19;4913676;29;20066;-65
2023/09/12 09:51:44;;;;;;;11.35;5.68;;;;;;;25.09;77.02;101018.63;4911254;28;20059;-66
2023/09/12 09:54:12;;;;;;;7.30;5.70;;;;;;;25.21;77.77;101007.88;4915741;28;20406;-66
2023/09/12 09:56:46;;;;;;;8.70;4.82;;;;;;;25.25;77.72;101004.50;4915970;28;20036;-66
2023/09/12 09:59:16;;;;;;;6.30;4.30;;;;;;;25.38;76.60;101011.28;4918541;29;20047;-66
2023/09/12 10:01:44;;;;;;;6.32;3.83;;;;;;;25.41;74.09;101016.09;4927430;28;20191;-66
2023/09/12 10:04:10;;;;;;;6.35;3.78;;;;;;;25.45;72.87;101009.22;4929374;29;20123;-66
2023/09/12 10:06:38;;;;;;;6.95;3.63;;;;;;;25.50;73.02;101005.81;4916487;28;20031;-66
2023/09/12 10:09:11;;;;;;;6.68;3.67;;;;;;;25.49;73.97;101003.44;4931103;29;20039;-66
2023/09/12 10:11:39;;;;;;;4.82;2.97;;;;;;;25.52;73.83;101008.22;4918118;28;20032;-66
2023/09/12 10:14:06;;;;;;;5.38;3.00;;;;;;;25.76;75.63;101008.72;4929923;29;20044;-66
2023/09/12 10:16:34;;;;;;;6.07;3.78;;;;;;;25.60;72.73;101008.59;4919448;28;20142;-66
2023/09/12 10:19:18;;;;;;;4.90;3.00;;;;;;;25.61;73.84;101015.47;4952595;28;20041;-66
2023/09/12 10:21:56;;;;;;;6.78;3.85;;;;;;;25.66;72.00;101013.94;4914231;28;20043;-66
2023/09/12 10:24:23;;;;;;;4.05;3.10;;;;;;;25.43;74.41;101008.69;4927816;29;20036;-66
2023/09/12 10:26:50;;;;;;;5.32;3.20;;;;;;;25.66;73.21;101013.94;4930251;28;20040;-66
2023/09/12 10:29:16;;;;;;;5.03;3.08;;;;;;;25.68;70.15;101011.84;4939095;28;20562;-66
2023/09/12 10:31:42;;;;;;;4.20;2.83;;;;;;;25.42;73.64;101009.72;4927329;28;20039;-66
2023/09/12 10:34:10;;;;;;;4.93;3.33;;;;;;;25.66;75.48;101012.09;4915914;29;20190;-66
2023/09/12 10:36:41;;;;;;;8.35;3.92;;;;;;;25.42;74.03;101007.06;4928708;28;20040;-66
2023/09/12 10:39:08;;;;;;;4.35;2.95;;;;;;;25.60;74.39;101013.09;4918490;29;20495;-66
2023/09/12 10:41:37;;;;;;;4.07;3.08;;;;;;;25.73;72.43;101007.38;4916927;29;20047;-66
2023/09/12 10:44:09;;;;;;;6.93;3.97;;;;;;;25.59;72.87;101001.66;4909114;29;20032;-66
2023/09/12 10:46:39;;;;;;;5.20;3.50;;;;;;;25.80;72.58;101001.84;4913319;29;20048;-66
2023/09/12 10:49:13;;;;;;;6.07;3.70;;;;;;;25.63;72.32;100996.66;4932650;29;20432;-66
2023/09/12 10:51:47;;;;;;;6.68;3.78;;;;;;;25.52;73.31;100989.63;4928357;29;20070;-66
2023/09/12 10:54:22;;;;;;;5.38;3.63;;;;;;;25.45;72.43;100989.84;4916672;29;20088;-66
2023/09/12 10:57:13;;;;;;;6.05;3.47;;;;;;;25.23;73.30;100976.63;4925797;28;20395;-66
2023/09/12 11:00:02;;;;;;;6.80;3.90;;;;;;;25.34;72.69;100977.53;4916675;29;20514;-66
2023/09/12 11:02:31;;;;;;;6.63;4.10;;;;;;;25.33;74.39;100982.03;4912333;28;20520;-66
2023/09/12 11:05:04;;;;;;;9.60;3.95;;;;;;;25.50;74.43;100987.22;4915090;29;20039;-66
2023/09/12 11:07:32;;;;;;;7.75;4.47;;;;;;;25.68;72.81;100978.13;4917732;29;20032;-66
2023/09/12 11:10:18;;;;;;;6.35;3.92;;;;;;;25.88;72.15;100987.28;4912345;29;20040;-66
2023/09/12 11:12:45;;;;;;;7.30;5.03;;;;;;;25.70;72.58;100986.63;4913475;29;20595;-66
2023/09/12 11:15:11;;;;;;;7.53;4.28;;;;;;;25.66;75.35;100982.09;4919510;29;20036;-66